Time;durP1;ratioP1;P1;durP2;ratioP2;P2;SDS_P1;SDS_P2;PMS_P1;PMS_P2;Temp;Humidity;BMP_temperature;BMP_pressure;BME280_temperature;BME280_humidity;BME280_pressure;Samples;Min_cycle;Max_cycle;Signal;HPM_P1;HPM_P2
2021/04/01 00:00:58;;;;;;;2.15;0.88;;;17.00;49.60;;;;;;4990452;28;20042;-80
2021/04/01 00:03:25;;;;;;;1.85;0.30;;;16.90;49.70;;;;;;4995642;28;20026;-81
2021/04/01 00:05:51;;;;;;;1.45;0.20;;;16.90;49.70;;;;;;4994570;28;20038;-81
2021/04/01 00:08:17;;;;;;;0.90;0.22;;;16.90;49.80;;;;;;4994242;28;20031;-81
2021/04/01 00:10:44;;;;;;;2.25;0.10;;;16.80;49.80;;;;;;4994095;28;20386;-81
2021/04/01 00:13:10;;;;;;;0.32;0.15;;;16.80;49.90;;;;;;4993476;28;20383;-81
2021/04/01 00:15:39;;;;;;;0.68;0.17;;;16.80;49.90;;;;;;4993577;28;20043;-82
2021/04/01 00:18:12;;;;;;;0.88;0.28;;;16.80;50.60;;;;;;4995240;28;20045;-81
2021/04/01 00:20:38;;;;;;;1.30;0.22;;;16.70;50.10;;;;;;4995223;28;20022;-81
2021/04/01 00:23:05;;;;;;;1.77;0.40;;;16.70;50.10;;;;;;4995253;28;20041;-83
2021/04/01 00:25:31;;;;;;;0.82;0.30;;;16.60;50.10;;;;;;4979379;28;20030;-80
2021/04/01 00:27:57;;;;;;;1.65;0.50;;;16.60;50.20;;;;;;4994394;28;20037;-81
2021/04/01 00:30:23;;;;;;;0.77;0.20;;;16.60;50.20;;;;;;4994744;28;20049;-81
2021/04/01 00:32:49;;;;;;;1.30;0.20;;;16.60;50.30;;;;;;4995018;28;20471;-81
2021/04/01 00:35:15;;;;;;;1.20;0.98;;;16.60;50.30;;;;;;4993758;28;20058;-80
2021/04/01 00:37:41;;;;;;;1.55;0.50;;;16.50;50.30;;;;;;4994065;28;20033;-80
2021/04/01 00:40:08;;;;;;;1.42;0.47;;;16.50;50.30;;;;;;4992542;28;20042;-81
2021/04/01 00:42:34;;;;;;;10.77;0.93;;;16.50;50.50;;;;;;4995098;28;20030;-80
2021/04/01 00:45:02;;;;;;;3.38;0.63;;;16.40;50.50;;;;;;4993664;28;20046;-80
2021/04/01 00:47:34;;;;;;;1.48;0.90;;;16.40;50.60;;;;;;4993005;28;20026;-81
2021/04/01 00:50:01;;;;;;;0.65;0.38;;;16.30;50.60;;;;;;4993558;28;20037;-81
2021/04/01 00:52:27;;;;;;;1.50;0.63;;;16.30;50.60;;;;;;4993471;28;20025;-81
2021/04/01 00:54:53;;;;;;;2.55;0.70;;;16.30;50.70;;;;;;4976260;28;20046;-80
2021/04/01 00:57:19;;;;;;;15.85;1.50;;;16.20;50.70;;;;;;4993368;28;20034;-81
2021/04/01 00:59:45;;;;;;;4.47;1.05;;;16.30;50.90;;;;;;4974176;28;20043;-81
2021/04/01 01:02:11;;;;;;;1.50;0.60;;;16.20;50.90;;;;;;4982823;28;20069;-80
2021/04/01 01:04:37;;;;;;;5.72;0.60;;;16.20;50.90;;;;;;4993537;28;20038;-80
2021/04/01 01:07:04;;;;;;;1.70;0.40;;;16.20;50.90;;;;;;4992305;28;20049;-81
2021/04/01 01:09:30;;;;;;;1.90;0.45;;;16.10;51.00;;;;;;4992763;28;20037;-81
2021/04/01 01:11:56;;;;;;;10.18;0.55;;;16.00;51.00;;;;;;4994281;28;20041;-80
2021/04/01 01:14:22;;;;;;;0.63;0.20;;;16.00;51.10;;;;;;4993278;28;20045;-80
2021/04/01 01:16:48;;;;;;;1.00;0.32;;;16.00;51.20;;;;;;4993839;28;20053;-82
2021/04/01 01:19:14;;;;;;;3.40;0.70;;;15.90;51.20;;;;;;4993835;28;20034;-80
2021/04/01 01:21:40;;;;;;;1.33;0.50;;;15.90;51.30;;;;;;4992381;28;20057;-80
2021/04/01 01:24:16;;;;;;;5.90;0.70;;;15.90;51.40;;;;;;4992487;28;20046;-80
2021/04/01 01:26:42;;;;;;;0.90;0.40;;;15.80;51.50;;;;;;4993771;28;20037;-80
2021/04/01 01:29:09;;;;;;;1.75;0.38;;;15.80;51.50;;;;;;4992858;28;20410;-82
2021/04/01 01:31:46;;;;;;;1.13;0.35;;;15.80;51.70;;;;;;4993789;28;20030;-80
2021/04/01 01:34:12;;;;;;;6.65;0.43;;;15.80;51.90;;;;;;4992163;28;20398;-80
2021/04/01 01:36:38;;;;;;;0.50;0.10;;;15.70;52.00;;;;;;4992377;28;20047;-80
2021/04/01 01:39:05;;;;;;;0.77;0.40;;;15.50;52.20;;;;;;4992598;28;20513;-80
2021/04/01 01:41:31;;;;;;;9.18;0.88;;;15.40;52.40;;;;;;4993859;28;20037;-80
2021/04/01 01:43:57;;;;;;;2.55;0.63;;;15.30;52.50;;;;;;4993850;28;20035;-84
2021/04/01 01:46:23;;;;;;;2.50;0.55;;;15.30;52.50;;;;;;4992488;28;20060;-80
2021/04/01 01:48:49;;;;;;;0.57;0.32;;;15.30;52.50;;;;;;4993030;28;20521;-80
2021/04/01 01:51:15;;;;;;;1.75;0.55;;;15.30;52.60;;;;;;4993865;28;20030;-81
2021/04/01 01:53:41;;;;;;;0.20;0.13;;;15.20;52.60;;;;;;4992462;28;20038;-80
2021/04/01 01:56:08;;;;;;;0.65;0.28;;;15.20;52.60;;;;;;4993628;28;20042;-80
2021/04/01 01:58:34;;;;;;;0.95;0.35;;;15.20;52.70;;;;;;4993722;28;20117;-80
2021/04/01 02:01:02;;;;;;;1.48;0.85;;;15.20;52.70;;;;;;4992542;28;20037;-80
2021/04/01 02:03:28;;;;;;;3.72;0.45;;;15.20;52.70;;;;;;4989268;28;20399;-80
2021/04/01 02:05:54;;;;;;;0.60;0.38;;;15.20;52.60;;;;;;4979255;28;20050;-80
2021/04/01 02:08:20;;;;;;;0.50;0.30;;;15.20;52.70;;;;;;4983303;28;20034;-80
2021/04/01 02:10:48;;;;;;;1.08;0.35;;;15.30;52.70;;;;;;4987881;28;20031;-80
2021/04/01 02:13:16;;;;;;;1.42;0.65;;;15.20;52.70;;;;;;4990094;28;20034;-80
2021/04/01 02:15:42;;;;;;;1.02;0.20;;;15.20;52.70;;;;;;4987410;28;20419;-80
2021/04/01 02:18:20;;;;;;;1.52;0.47;;;15.20;52.80;;;;;;4987913;28;20069;-81
2021/04/01 02:20:48;;;;;;;2.13;0.40;;;15.20;52.70;;;;;;4987098;28;20045;-81
2021/04/01 02:23:18;;;;;;;2.50;0.85;;;15.30;52.80;;;;;;4972414;28;20034;-80
2021/04/01 02:25:45;;;;;;;1.65;0.40;;;15.20;52.80;;;;;;4986547;28;20031;-80
2021/04/01 02:28:12;;;;;;;0.40;0.15;;;15.20;52.80;;;;;;4988979;28;20046;-80
2021/04/01 02:30:39;;;;;;;1.02;0.40;;;15.20;52.80;;;;;;4988612;28;20475;-80
2021/04/01 02:33:05;;;;;;;2.20;0.40;;;15.20;52.90;;;;;;4970278;28;20043;-80
2021/04/01 02:35:32;;;;;;;0.60;0.20;;;15.20;53.00;;;;;;4965206;28;20042;-81
2021/04/01 02:37:58;;;;;;;4.05;0.82;;;15.10;53.00;;;;;;4989039;28;20067;-80
2021/04/01 02:40:24;;;;;;;0.98;0.50;;;15.10;53.10;;;;;;4995986;28;20467;-81
2021/04/01 02:42:50;;;;;;;1.77;0.80;;;15.10;53.20;;;;;;4996396;28;20030;-81
2021/04/01 02:45:16;;;;;;;2.72;0.25;;;15.10;53.20;;;;;;4995139;28;20209;-80
2021/04/01 02:47:42;;;;;;;0.90;0.38;;;15.00;53.30;;;;;;4995699;28;20506;-80
2021/04/01 02:50:09;;;;;;;0.50;0.10;;;15.00;53.30;;;;;;4996452;28;20030;-81
2021/04/01 02:52:35;;;;;;;4.90;0.70;;;15.00;53.30;;;;;;4995788;28;20037;-80
2021/04/01 02:55:03;;;;;;;1.23;0.35;;;14.90;54.00;;;;;;4996192;28;20049;-81
2021/04/01 02:57:29;;;;;;;6.93;0.22;;;14.90;53.40;;;;;;4996309;28;20030;-80
2021/04/01 02:59:56;;;;;;;2.70;0.50;;;14.90;53.50;;;;;;4995574;28;20387;-81
2021/04/01 03:02:24;;;;;;;1.25;0.43;;;14.90;53.50;;;;;;4996230;28;20042;-80
2021/04/01 03:04:50;;;;;;;2.55;0.50;;;14.90;53.50;;;;;;4996739;28;20065;-80
2021/04/01 03:07:16;;;;;;;1.42;0.30;;;14.80;53.50;;;;;;4995523;28;20042;-81
2021/04/01 03:09:42;;;;;;;0.40;0.20;;;14.80;53.60;;;;;;4995751;28;20038;-80
2021/04/01 03:12:09;;;;;;;0.30;0.10;;;14.80;53.70;;;;;;4996763;28;20034;-80
2021/04/01 03:14:35;;;;;;;0.95;0.32;;;14.70;53.80;;;;;;4995162;28;20034;-80
2021/04/01 03:17:01;;;;;;;1.23;0.73;;;14.60;53.90;;;;;;4995886;28;20517;-80
2021/04/01 03:19:27;;;;;;;1.55;0.40;;;14.60;54.00;;;;;;4994963;28;20074;-80
2021/04/01 03:21:53;;;;;;;1.05;0.47;;;14.50;54.00;;;;;;4995585;28;20026;-80
2021/04/01 03:24:19;;;;;;;2.83;1.30;;;14.40;54.10;;;;;;4979190;28;20042;-80
2021/04/01 03:26:45;;;;;;;2.30;0.60;;;14.40;54.10;;;;;;4996330;28;20045;-80
2021/04/01 03:29:12;;;;;;;0.90;0.63;;;14.40;54.20;;;;;;4996079;28;20038;-80
2021/04/01 03:31:38;;;;;;;3.90;0.77;;;14.40;54.20;;;;;;4994809;28;20041;-80
2021/04/01 03:34:04;;;;;;;1.30;0.20;;;14.30;54.20;;;;;;4994986;28;20086;-80
2021/04/01 03:36:31;;;;;;;1.40;0.35;;;14.30;54.20;;;;;;4996263;28;20038;-80
2021/04/01 03:38:57;;;;;;;0.60;0.30;;;14.30;54.20;;;;;;4996147;28;20038;-80
2021/04/01 03:41:23;;;;;;;0.98;0.45;;;14.40;54.20;;;;;;4995140;28;20046;-80
2021/04/01 03:43:50;;;;;;;7.90;1.02;;;14.40;54.20;;;;;;4995960;28;20407;-81
2021/04/01 03:46:16;;;;;;;0.85;0.38;;;14.40;54.20;;;;;;4994318;28;20431;-80
2021/04/01 03:48:42;;;;;;;1.25;0.63;;;14.40;54.30;;;;;;4992495;28;20054;-80
2021/04/01 03:51:08;;;;;;;1.00;0.30;;;14.40;54.30;;;;;;4994497;28;20410;-80
2021/04/01 03:53:34;;;;;;;0.35;0.03;;;14.30;54.30;;;;;;4995941;28;20038;-80
2021/04/01 03:56:00;;;;;;;2.47;0.70;;;14.30;54.40;;;;;;4995549;28;20407;-81
2021/04/01 04:16:33;;;;;;;6.00;0.55;;;14.10;54.80;;;;;;4982053;28;20045;-80
2021/04/01 04:18:59;;;;;;;2.13;1.05;;;14.10;54.90;;;;;;4994240;28;20041;-80
2021/04/01 04:21:25;;;;;;;0.95;0.40;;;14.10;54.90;;;;;;4995451;28;20034;-80
2021/04/01 04:23:51;;;;;;;1.42;0.45;;;14.00;54.90;;;;;;4994042;28;20018;-81
2021/04/01 04:26:18;;;;;;;3.40;0.52;;;14.00;55.00;;;;;;4995423;28;20105;-80
2021/04/01 04:28:44;;;;;;;2.25;1.00;;;14.00;55.10;;;;;;4993937;28;20041;-81
2021/04/01 04:31:10;;;;;;;3.30;0.45;;;14.00;55.10;;;;;;4994175;28;20034;-80
2021/04/01 04:33:37;;;;;;;0.73;0.30;;;13.90;55.10;;;;;;4994988;28;20595;-80
2021/04/01 04:36:03;;;;;;;7.18;0.52;;;13.90;55.20;;;;;;4994732;28;20047;-80
2021/04/01 04:38:29;;;;;;;2.70;0.63;;;13.90;55.20;;;;;;4994883;28;20022;-80
2021/04/01 04:40:56;;;;;;;2.00;0.52;;;13.90;55.30;;;;;;4995005;28;20030;-80
2021/04/01 04:43:28;;;;;;;1.95;0.60;;;13.90;55.30;;;;;;4995303;28;20049;-80
2021/04/01 04:45:54;;;;;;;0.60;0.32;;;13.80;55.40;;;;;;4991801;28;20034;-80
2021/04/01 04:48:20;;;;;;;0.77;0.30;;;13.80;55.40;;;;;;4993545;28;20033;-80
2021/04/01 04:50:47;;;;;;;1.05;0.63;;;13.80;55.50;;;;;;4994592;28;20411;-80
2021/04/01 04:53:14;;;;;;;1.33;0.38;;;13.80;55.60;;;;;;4994653;28;20038;-80
2021/04/01 04:55:45;;;;;;;1.60;0.43;;;13.70;55.50;;;;;;4994962;28;20034;-80
2021/04/01 04:58:19;;;;;;;2.00;0.93;;;13.70;55.70;;;;;;4993929;28;20391;-80
2021/04/01 05:05:59;;;;;;;1.13;0.63;;;13.70;55.70;;;;;;4994639;28;20045;-81
2021/04/01 05:08:25;;;;;;;1.50;0.52;;;13.60;55.70;;;;;;4993318;28;20077;-81
2021/04/01 05:10:51;;;;;;;3.80;0.40;;;13.60;55.70;;;;;;4993256;28;20049;-81
2021/04/01 05:13:18;;;;;;;3.28;1.05;;;13.60;55.80;;;;;;4993231;28;20042;-80
2021/04/01 05:15:50;;;;;;;0.63;0.20;;;13.50;55.80;;;;;;4993032;28;20040;-81
2021/04/01 05:20:51;;;;;;;0.57;0.22;;;13.50;55.90;;;;;;4994350;28;20030;-80
2021/04/01 05:23:38;;;;;;;2.85;0.38;;;13.50;55.90;;;;;;4994438;28;20106;-80
2021/04/01 05:28:34;;;;;;;2.05;0.47;;;13.40;55.80;;;;;;4979734;28;20025;-80
2021/04/01 05:31:03;;;;;;;0.50;0.13;;;13.40;55.80;;;;;;4988842;28;20030;-80
2021/04/01 05:33:33;;;;;;;1.17;0.60;;;13.40;55.90;;;;;;4992841;28;20050;-81
2021/04/01 05:36:02;;;;;;;3.90;0.98;;;13.40;55.90;;;;;;4993839;28;20034;-80
2021/04/01 05:38:28;;;;;;;0.88;0.30;;;13.40;55.80;;;;;;4994116;28;20042;-80
2021/04/01 05:40:54;;;;;;;3.97;0.95;;;13.40;55.90;;;;;;4994309;28;20515;-80
2021/04/01 05:43:22;;;;;;;2.47;0.63;;;13.40;55.90;;;;;;4993958;28;20034;-80
2021/04/01 05:46:01;;;;;;;3.33;0.85;;;13.40;55.90;;;;;;4990861;28;20399;-79
2021/04/01 05:48:35;;;;;;;1.15;0.40;;;13.30;55.90;;;;;;4993953;28;20475;-80
2021/04/01 06:04:23;;;;;;;0.20;0.10;;;13.30;56.00;;;;;;4995145;28;20034;-80
2021/04/01 06:06:53;;;;;;;0.93;0.43;;;13.30;56.10;;;;;;4991672;28;20057;-80
2021/04/01 06:09:22;;;;;;;3.85;0.43;;;13.20;56.10;;;;;;4993752;28;20487;-80
2021/04/01 06:11:52;;;;;;;0.85;0.28;;;13.20;56.20;;;;;;4993022;28;20050;-80
2021/04/01 06:14:34;;;;;;;1.23;0.32;;;13.20;56.20;;;;;;4997514;28;20065;-80
2021/04/01 06:17:07;;;;;;;7.15;0.82;;;13.20;56.30;;;;;;4997376;28;20043;-80
2021/04/01 06:19:34;;;;;;;1.58;0.50;;;13.10;56.20;;;;;;4982331;28;20018;-80
2021/04/01 06:22:08;;;;;;;1.73;0.82;;;13.20;56.20;;;;;;4995469;28;20027;-81
2021/04/01 06:24:35;;;;;;;2.97;0.85;;;13.20;56.10;;;;;;4997775;28;20500;-80
2021/04/01 06:27:18;;;;;;;1.33;0.70;;;13.30;56.10;;;;;;4997743;28;20034;-79
2021/04/01 06:30:21;;;;;;;2.17;0.55;;;13.30;56.10;;;;;;4996360;28;20031;-80
2021/04/01 06:33:07;;;;;;;0.93;0.40;;;13.40;55.90;;;;;;4994078;28;20037;-80
2021/04/01 06:35:37;;;;;;;0.88;0.50;;;13.60;55.90;;;;;;4996246;28;20034;-80
2021/04/01 06:40:41;;;;;;;1.58;0.75;;;13.70;55.70;;;;;;4982957;28;20046;-80
2021/04/01 06:43:23;;;;;;;1.55;0.60;;;13.80;55.60;;;;;;4994830;28;20034;-80
2021/04/01 06:45:56;;;;;;;0.85;0.47;;;13.80;55.50;;;;;;4995718;28;20049;-80
2021/04/01 06:48:26;;;;;;;0.43;0.25;;;13.90;55.50;;;;;;4997086;28;20026;-80
2021/04/01 06:51:06;;;;;;;0.70;0.25;;;14.00;55.30;;;;;;4976953;28;20057;-80
2021/04/01 06:53:51;;;;;;;1.45;0.50;;;14.10;55.20;;;;;;4988770;28;20018;-80
2021/04/01 06:56:31;;;;;;;3.13;1.02;;;14.20;55.10;;;;;;4995457;28;20534;-80
2021/04/01 07:02:07;;;;;;;0.38;0.30;;;14.40;54.90;;;;;;4920146;29;20040;-80
2021/04/01 07:04:35;;;;;;;2.03;0.60;;;14.50;54.80;;;;;;4934372;29;20504;-80
2021/04/01 07:07:12;;;;;;;4.13;0.45;;;14.50;54.80;;;;;;4948106;28;20516;-80
2021/04/01 07:12:18;;;;;;;5.90;0.55;;;14.50;55.10;;;;;;4948677;28;20046;-80
2021/04/01 07:14:46;;;;;;;0.50;0.20;;;14.50;55.20;;;;;;4944363;28;20032;-80
2021/04/01 07:17:27;;;;;;;1.90;0.88;;;14.60;55.00;;;;;;4945662;28;20058;-80
2021/04/01 07:47:32;;;;;;;0.98;0.13;;;16.10;53.50;;;;;;4995311;28;20404;-80
2021/04/01 07:50:06;;;;;;;0.35;0.10;;;16.20;53.50;;;;;;4995709;28;20038;-80
2021/04/01 07:52:33;;;;;;;6.28;1.25;;;16.20;53.70;;;;;;4979495;28;20375;-80
2021/04/01 07:55:33;;;;;;;0.90;0.30;;;16.20;53.90;;;;;;4989463;28;20038;-81
2021/04/01 08:01:33;;;;;;;2.85;0.20;;;16.30;53.80;;;;;;4997324;28;20106;-80
2021/04/01 08:06:15;;;;;;;0.17;0.08;;;16.50;53.60;;;;;;4994623;28;20057;-80
2021/04/01 08:08:44;;;;;;;0.35;0.10;;;16.70;53.50;;;;;;4994053;28;20034;-80
2021/04/01 08:11:11;;;;;;;0.30;0.20;;;16.70;53.30;;;;;;4994236;28;20053;-80
2021/04/01 08:13:39;;;;;;;1.15;0.38;;;16.80;53.20;;;;;;4994384;28;20030;-82
2021/04/01 08:16:08;;;;;;;0.65;0.22;;;16.90;53.20;;;;;;4992407;28;20041;-80
2021/04/01 08:18:36;;;;;;;0.47;0.25;;;16.90;53.20;;;;;;4979654;28;20094;-80
2021/04/01 08:21:05;;;;;;;0.65;0.20;;;17.00;53.10;;;;;;4993994;28;20053;-80
2021/04/01 08:23:44;;;;;;;1.30;0.65;;;17.10;52.90;;;;;;4995368;28;20053;-81
2021/04/01 08:26:19;;;;;;;0.13;0.00;;;17.30;52.80;;;;;;4994098;28;20038;-81
2021/04/01 08:34:47;;;;;;;3.13;0.65;;;17.60;52.30;;;;;;4998463;28;20387;-80
2021/04/01 08:37:07;;;;;;;1.30;0.28;;;17.80;52.10;;;;;;4976982;28;20403;-80
2021/04/01 08:39:35;;;;;;;1.58;0.80;;;18.00;51.70;;;;;;4994664;28;20026;-80
2021/04/01 08:42:08;;;;;;;9.77;0.60;;;18.20;51.50;;;;;;4993735;28;20046;-81
2021/04/01 08:44:41;;;;;;;1.55;0.43;;;18.30;51.20;;;;;;4994493;28;20396;-81
2021/04/01 08:47:38;;;;;;;0.98;0.30;;;18.50;51.00;;;;;;4993151;28;20058;-81
2021/04/01 08:50:14;;;;;;;0.77;0.43;;;18.60;50.70;;;;;;4993844;28;20037;-80
2021/04/01 08:53:14;;;;;;;2.97;0.55;;;18.70;50.50;;;;;;4980249;28;20039;-81
2021/04/01 08:56:23;;;;;;;5.03;0.57;;;18.90;50.40;;;;;;4963037;28;20038;-81
2021/04/01 08:58:55;;;;;;;1.00;0.43;;;19.10;50.10;;;;;;4969909;28;20063;-81
2021/04/01 09:01:21;;;;;;;1.15;0.20;;;19.40;49.80;;;;;;4956464;28;20042;-81
2021/04/01 09:03:48;;;;;;;1.45;0.47;;;19.60;49.60;;;;;;5004600;28;20487;-81
2021/04/01 09:06:17;;;;;;;0.38;0.13;;;19.80;49.40;;;;;;4955410;28;20038;-81
2021/04/01 09:08:54;;;;;;;0.80;0.30;;;20.00;49.20;;;;;;4956756;28;20057;-81
2021/04/01 09:11:36;;;;;;;1.50;0.40;;;20.10;48.90;;;;;;4957761;28;20379;-81
2021/04/01 09:14:11;;;;;;;0.70;0.20;;;20.30;48.80;;;;;;4957618;28;20031;-81
2021/04/01 09:16:39;;;;;;;2.22;0.20;;;20.70;48.50;;;;;;4957619;28;20043;-82
2021/04/01 09:19:05;;;;;;;0.70;0.32;;;21.10;47.90;;;;;;4956280;28;20539;-81
2021/04/01 09:21:33;;;;;;;1.00;0.10;;;21.50;47.40;;;;;;4972250;28;20050;-81
2021/04/01 09:24:00;;;;;;;1.13;0.30;;;21.70;47.20;;;;;;4956635;28;20415;-81
2021/04/01 09:26:26;;;;;;;0.15;0.10;;;21.80;47.00;;;;;;4972508;28;20031;-81
2021/04/01 09:29:02;;;;;;;1.38;0.40;;;22.00;46.90;;;;;;4956570;28;20043;-81
2021/04/01 09:31:34;;;;;;;2.83;0.65;;;22.10;46.70;;;;;;4956364;28;20439;-81
2021/04/01 09:34:00;;;;;;;2.50;0.80;;;22.30;46.60;;;;;;4982971;28;20034;-81
2021/04/01 09:36:39;;;;;;;2.30;0.43;;;22.50;46.50;;;;;;4989091;28;20094;-81
2021/04/01 09:41:50;;;;;;;22.13;0.65;;;22.90;46.00;;;;;;4994647;28;20041;-81
2021/04/01 09:44:16;;;;;;;1.95;0.52;;;23.20;45.70;;;;;;4992462;28;20049;-81
2021/04/01 09:47:13;;;;;;;4.30;0.20;;;23.30;45.40;;;;;;4993229;28;20415;-81
2021/04/01 09:50:03;;;;;;;3.03;0.30;;;23.40;45.20;;;;;;4979836;28;20046;-81
2021/04/01 09:52:29;;;;;;;7.72;0.50;;;23.40;45.10;;;;;;4992487;28;20049;-81
2021/04/01 09:55:00;;;;;;;0.50;0.20;;;23.40;45.10;;;;;;4991687;28;20053;-81
2021/04/01 09:57:38;;;;;;;4.03;0.40;;;23.40;45.10;;;;;;4993560;28;20045;-82
2021/04/01 10:00:10;;;;;;;1.02;0.32;;;23.60;45.00;;;;;;4992287;28;20045;-82
2021/04/01 10:02:39;;;;;;;3.20;0.30;;;23.70;44.70;;;;;;4992558;28;20042;-81
2021/04/01 10:05:05;;;;;;;0.40;0.17;;;24.00;44.40;;;;;;4992377;28;20038;-81
2021/04/01 10:07:33;;;;;;;3.70;0.65;;;24.10;44.00;;;;;;4961038;28;20045;-81
2021/04/01 10:09:59;;;;;;;0.52;0.15;;;24.20;44.00;;;;;;4987622;28;20038;-82
2021/04/01 10:12:43;;;;;;;4.10;0.30;;;24.40;43.80;;;;;;4993729;28;20038;-81
2021/04/01 10:15:10;;;;;;;0.93;0.30;;;24.60;43.20;;;;;;4993245;28;20053;-82
2021/04/01 10:17:38;;;;;;;6.93;0.57;;;24.70;43.20;;;;;;4992319;28;20034;-81
2021/04/01 10:20:06;;;;;;;2.28;0.10;;;24.70;43.00;;;;;;4992248;28;20030;-82
2021/04/01 10:22:33;;;;;;;1.60;0.40;;;24.70;43.00;;;;;;4977101;28;20033;-81
2021/04/01 10:30:23;;;;;;;4.25;0.50;;;25.30;42.40;;;;;;4993323;28;20061;-82
2021/04/01 10:32:51;;;;;;;0.30;0.00;;;25.40;42.20;;;;;;4992301;28;20030;-82
2021/04/01 10:35:22;;;;;;;1.08;0.45;;;25.40;42.10;;;;;;4991843;28;20042;-82
2021/04/01 10:37:49;;;;;;;0.95;0.38;;;25.30;41.70;;;;;;4992198;28;20038;-81
2021/04/01 10:40:17;;;;;;;1.40;0.30;;;25.30;41.80;;;;;;4992353;28;20031;-82
2021/04/01 10:42:47;;;;;;;3.17;0.47;;;25.10;41.10;;;;;;4990646;28;20061;-81
2021/04/01 10:45:17;;;;;;;0.13;0.10;;;25.00;41.00;;;;;;4991540;28;20049;-82
2021/04/01 10:48:08;;;;;;;1.42;0.30;;;24.90;40.80;;;;;;4993403;28;20495;-82
2021/04/01 10:50:34;;;;;;;0.65;0.40;;;24.90;40.70;;;;;;4992912;28;20027;-82
2021/04/01 10:53:01;;;;;;;0.10;0.00;;;25.00;40.70;;;;;;4992281;28;20375;-82
2021/04/01 10:55:29;;;;;;;0.70;0.10;;;25.10;40.50;;;;;;4992410;28;20045;-82
2021/04/01 10:58:06;;;;;;;0.82;0.10;;;25.30;40.30;;;;;;4992360;28;20041;-81
2021/04/01 11:00:32;;;;;;;0.30;0.00;;;25.70;40.00;;;;;;4994461;28;20041;-82
2021/04/01 11:03:00;;;;;;;0.93;0.10;;;25.80;39.70;;;;;;4995415;28;20046;-81
2021/04/01 11:05:26;;;;;;;1.27;0.35;;;25.90;39.20;;;;;;4995361;28;20491;-81
2021/04/01 11:08:00;;;;;;;0.45;0.17;;;25.80;39.20;;;;;;4995602;28;20038;-82
2021/04/01 11:10:28;;;;;;;4.38;0.22;;;25.70;39.10;;;;;;4979461;28;20042;-82
2021/04/01 11:12:59;;;;;;;2.33;0.15;;;25.70;38.90;;;;;;4994769;28;20030;-82
2021/04/01 11:15:26;;;;;;;;;;;25.70;38.90;;;;;;4995529;28;20054;-81
2021/04/01 11:18:14;;;;;;;1.27;0.08;;;25.70;38.90;;;;;;4996113;28;19925;-82
2021/04/01 11:20:42;;;;;;;4.80;0.13;;;25.80;38.70;;;;;;4979057;28;20047;-82
2021/04/01 11:23:12;;;;;;;1.58;0.20;;;25.80;38.40;;;;;;4995295;28;20034;-81
2021/04/01 11:25:44;;;;;;;3.63;0.15;;;25.80;38.40;;;;;;4995358;28;20398;-82
2021/04/01 11:28:11;;;;;;;1.17;0.25;;;26.00;38.20;;;;;;4994345;28;20022;-81
2021/04/01 11:30:51;;;;;;;0.57;0.30;;;26.00;37.80;;;;;;4994709;28;20022;-82
2021/04/01 11:33:17;;;;;;;0.28;0.10;;;26.10;37.70;;;;;;4976349;28;20051;-81
2021/04/01 11:35:46;;;;;;;5.05;0.28;;;26.20;37.40;;;;;;4989203;28;20030;-82
2021/04/01 11:38:24;;;;;;;2.25;0.45;;;26.20;37.10;;;;;;4996050;28;20043;-81
2021/04/01 11:41:01;;;;;;;0.20;0.10;;;26.20;37.10;;;;;;4995148;28;20045;-82
2021/04/01 11:43:29;;;;;;;0.68;0.00;;;26.30;36.80;;;;;;4994484;28;20491;-81
2021/04/01 11:45:56;;;;;;;0.20;0.20;;;26.20;36.60;;;;;;4993473;28;20038;-81
2021/04/01 11:48:22;;;;;;;1.83;0.20;;;26.30;36.70;;;;;;4994351;28;20419;-81
2021/04/01 11:50:48;;;;;;;1.65;0.20;;;26.20;36.50;;;;;;4994853;28;20584;-82
2021/04/01 11:53:15;;;;;;;0.85;0.20;;;26.30;36.40;;;;;;4994598;28;20034;-82
2021/04/01 11:55:53;;;;;;;2.13;0.22;;;26.30;36.30;;;;;;4995030;28;20034;-81
2021/04/01 11:58:21;;;;;;;0.10;0.00;;;26.40;36.10;;;;;;4994641;28;20360;-82
2021/04/01 12:00:49;;;;;;;0.20;0.03;;;26.50;36.10;;;;;;4994451;28;20038;-82
2021/04/01 12:03:24;;;;;;;3.42;0.40;;;26.50;35.80;;;;;;4994472;28;20034;-82
2021/04/01 12:05:50;;;;;;;0.32;0.00;;;26.60;35.80;;;;;;4995597;28;20471;-82
2021/04/01 12:08:16;;;;;;;0.55;0.20;;;26.60;35.70;;;;;;4994315;28;20026;-81
2021/04/01 12:10:53;;;;;;;0.75;0.20;;;26.60;35.60;;;;;;4995340;28;20031;-81
2021/04/01 12:13:20;;;;;;;0.00;0.00;;;26.60;35.50;;;;;;4994416;28;20035;-81
2021/04/01 12:15:46;;;;;;;0.50;0.10;;;26.60;35.50;;;;;;4992707;28;20038;-82
2021/04/01 12:18:12;;;;;;;1.60;0.20;;;26.70;35.40;;;;;;4994085;28;20043;-81
2021/04/01 12:20:38;;;;;;;1.40;0.20;;;26.70;35.20;;;;;;4994250;28;20415;-82
2021/04/01 12:23:13;;;;;;;0.28;0.00;;;26.60;34.80;;;;;;4994110;28;20034;-81
2021/04/01 12:25:40;;;;;;;1.10;0.30;;;26.60;34.90;;;;;;4980880;28;20042;-81
2021/04/01 12:28:06;;;;;;;0.20;0.10;;;26.60;34.90;;;;;;4994321;28;20030;-81
2021/04/01 12:30:37;;;;;;;0.22;0.15;;;26.70;34.70;;;;;;4993461;28;20031;-81
2021/04/01 12:33:10;;;;;;;1.38;0.52;;;26.70;34.60;;;;;;4995117;28;20033;-81
2021/04/01 12:35:47;;;;;;;0.22;0.10;;;26.70;34.60;;;;;;4995112;28;20034;-81
2021/04/01 12:38:14;;;;;;;0.68;0.13;;;26.70;34.50;;;;;;4994894;28;20057;-81
2021/04/01 12:40:40;;;;;;;2.58;0.00;;;26.80;34.50;;;;;;4994877;28;20027;-82
2021/04/01 12:43:07;;;;;;;0.38;0.00;;;26.90;34.50;;;;;;4994208;28;20494;-81
2021/04/01 12:45:34;;;;;;;1.55;0.30;;;27.00;34.40;;;;;;4994085;28;20042;-81
2021/04/01 12:48:12;;;;;;;0.55;0.20;;;27.00;34.10;;;;;;4993560;28;20018;-81
2021/04/01 12:50:39;;;;;;;0.38;0.03;;;27.00;33.90;;;;;;4993712;28;20391;-81
2021/04/01 12:53:06;;;;;;;0.82;0.17;;;27.00;34.00;;;;;;4994844;28;20022;-83
2021/04/01 12:58:41;;;;;;;0.10;0.00;;;27.20;34.00;;;;;;4997306;28;20039;-82
2021/04/01 13:01:28;;;;;;;0.40;0.25;;;27.50;34.00;;;;;;5005634;28;20503;-81
2021/04/01 13:03:56;;;;;;;1.33;0.28;;;27.50;33.70;;;;;;4994104;28;20042;-81
2021/04/01 13:06:39;;;;;;;0.45;0.10;;;27.60;33.60;;;;;;4994716;28;20038;-81
2021/04/01 13:11:40;;;;;;;0.82;0.20;;;27.60;33.40;;;;;;4995476;28;20467;-82
2021/04/01 13:14:06;;;;;;;0.28;0.00;;;27.50;33.20;;;;;;4993045;28;20045;-82
2021/04/01 13:16:32;;;;;;;0.10;0.00;;;27.60;33.40;;;;;;4992963;28;20135;-82
2021/04/01 13:18:58;;;;;;;0.10;0.00;;;27.60;33.20;;;;;;4992511;28;20053;-82
2021/04/01 13:21:41;;;;;;;13.07;0.90;;;27.70;33.00;;;;;;4992744;28;20030;-81
2021/04/01 13:26:35;;;;;;;0.68;0.10;;;27.70;32.50;;;;;;4992863;28;20022;-82
2021/04/01 13:29:02;;;;;;;0.90;0.10;;;27.70;32.60;;;;;;4993827;28;20030;-81
2021/04/01 13:39:30;;;;;;;0.05;0.00;;;27.60;32.00;;;;;;4992153;28;20528;-81
2021/04/01 13:42:07;;;;;;;3.45;0.20;;;27.70;31.70;;;;;;4991759;28;20033;-81
2021/04/01 13:44:49;;;;;;;0.80;0.30;;;27.70;31.50;;;;;;4990982;28;20113;-81
2021/04/01 13:47:16;;;;;;;0.68;0.20;;;27.70;31.30;;;;;;4960795;28;20215;-81
2021/04/01 13:49:43;;;;;;;0.38;0.10;;;27.80;31.20;;;;;;4975106;28;20043;-81
2021/04/01 13:57:28;;;;;;;1.65;0.05;;;27.90;30.70;;;;;;4991954;28;20031;-81
2021/04/01 14:00:19;;;;;;;0.10;0.10;;;28.00;30.60;;;;;;4977634;28;20034;-81
2021/04/01 14:11:15;;;;;;;0.32;0.10;;;27.90;29.70;;;;;;4981763;28;20049;-81
2021/04/01 14:13:42;;;;;;;1.95;0.20;;;27.80;29.20;;;;;;4994168;28;20047;-83
2021/04/01 14:16:08;;;;;;;0.85;0.40;;;27.70;29.10;;;;;;4991166;28;20026;-81
2021/04/01 14:18:34;;;;;;;1.27;0.32;;;27.70;29.20;;;;;;4993438;28;20042;-81
2021/04/01 14:21:01;;;;;;;0.10;0.00;;;27.80;29.30;;;;;;4992316;28;20039;-81
2021/04/01 14:23:28;;;;;;;0.13;0.00;;;27.80;29.30;;;;;;4995266;28;20023;-82
2021/04/01 14:25:58;;;;;;;0.45;0.20;;;27.90;29.20;;;;;;4991959;28;20027;-83
2021/04/01 14:28:24;;;;;;;2.75;0.28;;;27.90;29.10;;;;;;4993611;28;20502;-81
2021/04/01 14:30:50;;;;;;;0.40;0.10;;;27.90;28.90;;;;;;4992428;28;20034;-81
2021/04/01 14:33:16;;;;;;;0.30;0.10;;;27.90;28.90;;;;;;4992351;28;20031;-81
2021/04/01 14:35:43;;;;;;;0.77;0.20;;;27.80;28.80;;;;;;4976336;28;20395;-82
2021/04/01 14:38:10;;;;;;;0.20;0.05;;;27.80;28.90;;;;;;4986852;28;20054;-82
2021/04/01 14:40:43;;;;;;;1.08;0.55;;;27.80;28.80;;;;;;4995824;28;20022;-83
2021/04/01 14:43:29;;;;;;;0.93;0.20;;;27.70;28.70;;;;;;4994848;28;20049;-81
2021/04/01 14:45:56;;;;;;;0.70;0.00;;;27.60;28.80;;;;;;4995717;28;20042;-81
2021/04/01 14:48:22;;;;;;;0.10;0.00;;;27.60;28.80;;;;;;4995814;28;20046;-81
2021/04/01 14:50:48;;;;;;;0.55;0.22;;;27.60;28.70;;;;;;4996967;28;20035;-81
2021/04/01 14:53:40;;;;;;;1.75;0.57;;;27.60;28.70;;;;;;4997303;28;20039;-81
2021/04/01 14:56:03;;;;;;;0.82;0.15;;;27.50;28.60;;;;;;4995145;28;20039;-81
2021/04/01 14:58:30;;;;;;;1.45;0.30;;;27.50;28.70;;;;;;4979589;28;20046;-82
2021/04/01 15:00:57;;;;;;;0.40;0.10;;;27.40;28.80;;;;;;4978420;28;20034;-81
2021/04/01 15:03:23;;;;;;;2.03;0.15;;;27.50;28.80;;;;;;4976527;28;20066;-81
2021/04/01 15:05:49;;;;;;;1.35;0.30;;;27.40;28.80;;;;;;4990378;28;20026;-83
2021/04/01 15:08:16;;;;;;;0.75;0.20;;;27.40;28.80;;;;;;4995490;28;20383;-81